Time;durP1;ratioP1;P1;durP2;ratioP2;P2;SDS_P1;SDS_P2;PMS_P1;PMS_P2;Temp;Humidity;BMP_temperature;BMP_pressure;BME280_temperature;BME280_humidity;BME280_pressure;Samples;Min_cycle;Max_cycle;Signal;HPM_P1;HPM_P2
2021/12/14 00:00:46;;;;;;;;;;;;;;;10.50;33.66;100500.06;4466083;32;34319;-72
2021/12/14 00:03:24;;;;;;;;;;;;;;;10.05;34.58;100501.91;4469876;32;34516;-73
2021/12/14 00:05:51;;;;;;;;;;;;;;;10.34;34.07;100493.94;4469429;32;33694;-73
2021/12/14 00:08:19;;;;;;;;;;;;;;;10.29;35.18;100496.88;4465857;32;34105;-73
2021/12/14 00:11:11;;;;;;;;;;;;;;;9.47;36.53;100499.97;4471238;32;34288;-73
2021/12/14 00:16:06;;;;;;;;;;;;;;;9.72;36.22;100497.59;4471366;32;33499;-74
2021/12/14 00:18:34;;;;;;;;;;;;;;;9.40;37.13;100502.16;4454881;32;33412;-73
2021/12/14 00:21:07;;;;;;;;;;;;;;;9.51;37.28;100496.22;4469122;32;35286;-73
2021/12/14 00:26:22;;;;;;;;;;;;;;;9.85;35.23;100492.38;4442861;32;33268;-73
2021/12/14 00:28:50;;;;;;;;;;;;;;;9.86;35.01;100503.97;4454570;32;33959;-74
2021/12/14 00:31:18;;;;;;;;;;;;;;;9.87;34.78;100503.00;4470928;32;33833;-74
2021/12/14 00:33:48;;;;;;;;;;;;;;;9.87;34.63;100503.00;4468527;32;33041;-73
2021/12/14 00:36:15;;;;;;;;;;;;;;;9.45;35.72;100502.75;4466332;32;31521;-73
2021/12/14 00:38:43;;;;;;;;;;;;;;;9.34;36.82;100513.19;4470472;32;35303;-71
2021/12/14 00:41:16;;;;;;;;;;;;;;;9.26;37.57;100507.44;4463123;32;34432;-73
2021/12/14 00:43:44;;;;;;;;;;;;;;;9.47;35.97;100506.22;4452089;32;34127;-71
2021/12/14 00:46:13;;;;;;;;;;;;;;;9.62;35.42;100508.94;4454465;32;33698;-72
2021/12/14 00:48:41;;;;;;;;;;;;;;;9.63;35.99;100522.22;4472041;32;33131;-72
2021/12/14 00:51:08;;;;;;;;;;;;;;;9.63;35.94;100513.31;4466544;32;34257;-73
2021/12/14 00:53:36;;;;;;;;;;;;;;;9.49;36.22;100523.00;4473232;32;34556;-72
2021/12/14 00:56:06;;;;;;;;;;;;;;;9.44;35.81;100521.56;4467858;32;33472;-72
2021/12/14 00:58:34;;;;;;;;;;;;;;;8.96;38.02;100524.25;4468943;32;34945;-72
2021/12/14 01:01:08;;;;;;;;;;;;;;;9.28;37.38;100525.13;4463327;32;35299;-71
2021/12/14 01:03:36;;;;;;;;;;;;;;;9.82;35.98;100519.28;4468380;32;35428;-71
2021/12/14 01:06:06;;;;;;;;;;;;;;;9.95;35.58;100519.44;4464169;32;34423;-71
2021/12/14 01:08:37;;;;;;;;;;;;;;;9.65;36.26;100514.09;4464264;32;34763;-72
2021/12/14 01:11:08;;;;;;;;;;;;;;;9.86;36.31;100515.50;4467205;32;32692;-72
2021/12/14 01:13:40;;;;;;;;;;;;;;;9.99;35.46;100513.81;4463344;32;34660;-71
2021/12/14 01:16:19;;;;;;;;;;;;;;;10.14;34.99;100522.72;4465586;32;34696;-71
2021/12/14 01:18:50;;;;;;;;;;;;;;;10.21;35.14;100516.06;4469585;32;33708;-73
2021/12/14 01:21:29;;;;;;;;;;;;;;;10.24;34.95;100528.37;4468812;32;34461;-72
2021/12/14 01:24:05;;;;;;;;;;;;;;;10.30;34.59;100535.19;4471824;32;33412;-72
2021/12/14 01:26:38;;;;;;;;;;;;;;;9.65;36.67;100544.34;4454662;32;34490;-70
2021/12/14 01:29:07;;;;;;;;;;;;;;;9.43;36.92;100542.06;4466449;32;34332;-72
2021/12/14 01:31:38;;;;;;;;;;;;;;;9.50;37.05;100532.75;4465188;32;32936;-71
2021/12/14 01:34:10;;;;;;;;;;;;;;;9.94;36.12;100526.59;4469573;32;34413;-76
2021/12/14 01:36:43;;;;;;;;;;;;;;;9.95;36.07;100531.00;4473440;32;31576;-72
2021/12/14 01:41:55;;;;;;;;;;;;;;;10.35;34.19;100517.06;4469512;32;34072;-70
2021/12/14 01:44:24;;;;;;;;;;;;;;;10.28;34.10;100510.38;4452016;32;33909;-71
2021/12/14 01:46:56;;;;;;;;;;;;;;;10.29;33.69;100512.09;4467278;32;33755;-72
2021/12/14 01:49:27;;;;;;;;;;;;;;;10.06;34.58;100519.66;4462956;32;33270;-71
2021/12/14 01:51:57;;;;;;;;;;;;;;;9.91;34.82;100526.78;4465920;32;33789;-73
2021/12/14 01:54:27;;;;;;;;;;;;;;;9.49;36.17;100525.66;4468978;32;34277;-72
2021/12/14 01:56:54;;;;;;;;;;;;;;;9.65;36.36;100516.78;4471973;32;33809;-71
2021/12/14 01:59:28;;;;;;;;;;;;;;;9.64;36.47;100515.91;4467248;32;34252;-72
2021/12/14 02:02:07;;;;;;;;;;;;;;;9.42;36.91;100516.28;4470620;32;33813;-73
2021/12/14 02:04:39;;;;;;;;;;;;;;;10.06;35.01;100508.97;4468481;32;34480;-71
2021/12/14 02:07:07;;;;;;;;;;;;;;;9.50;36.47;100511.37;4466030;32;31766;-74
2021/12/14 02:09:35;;;;;;;;;;;;;;;10.01;35.01;100521.75;4465959;32;33133;-71
2021/12/14 02:12:15;;;;;;;;;;;;;;;10.13;34.80;100515.66;4466953;32;35349;-72
2021/12/14 02:14:43;;;;;;;;;;;;;;;10.06;34.56;100506.28;4471885;32;34575;-70
2021/12/14 02:17:12;;;;;;;;;;;;;;;10.12;34.14;100510.41;4467069;32;32388;-71
2021/12/14 02:19:40;;;;;;;;;;;;;;;10.07;34.32;100505.31;4466980;32;35269;-72
2021/12/14 02:22:08;;;;;;;;;;;;;;;9.98;34.68;100509.44;4470112;32;32983;-72
2021/12/14 02:24:36;;;;;;;;;;;;;;;10.13;33.72;100512.13;4472502;32;34840;-72
2021/12/14 02:27:04;;;;;;;;;;;;;;;10.12;33.88;100510.41;4470959;32;33507;-71
2021/12/14 02:29:33;;;;;;;;;;;;;;;10.13;33.98;100515.66;4473380;32;33256;-73
2021/12/14 02:32:05;;;;;;;;;;;;;;;9.92;34.49;100517.81;4467226;32;34274;-74
2021/12/14 02:34:40;;;;;;;;;;;;;;;10.11;34.04;100525.59;4465964;32;33819;-72
2021/12/14 02:37:07;;;;;;;;;;;;;;;9.84;35.40;100522.75;4468886;32;33730;-73
2021/12/14 02:40:30;;;;;;;;;;;;;;;9.82;35.63;100523.78;4469161;32;33695;-71
2021/12/14 02:42:24;;;;;;;;;;;;;;;9.81;35.46;100522.94;4465028;32;34271;-73
2021/12/14 02:44:53;;;;;;;;;;;;;;;9.55;35.90;100519.13;4468984;32;34351;-71
2021/12/14 02:47:21;;;;;;;;;;;;;;;9.58;35.48;100518.94;4468896;32;33655;-72
2021/12/14 02:49:49;;;;;;;;;;;;;;;9.56;36.33;100512.81;4469236;32;34310;-74
2021/12/14 02:52:28;;;;;;;;;;;;;;;9.66;35.28;100516.69;4459563;32;33057;-74
2021/12/14 02:54:57;;;;;;;;;;;;;;;9.62;35.73;100524.97;4469430;32;34294;-75
2021/12/14 02:57:27;;;;;;;;;;;;;;;9.90;35.56;100526.88;4457541;32;33571;-73
2021/12/14 02:59:55;;;;;;;;;;;;;;;9.98;35.15;100530.84;4471851;32;33925;-76
2021/12/14 03:02:24;;;;;;;;;;;;;;;9.68;36.31;100521.94;4459813;32;35266;-72
2021/12/14 03:05:05;;;;;;;;;;;;;;;9.79;35.67;100522.16;4467760;32;34497;-76
2021/12/14 03:07:35;;;;;;;;;;;;;;;9.57;36.30;100515.41;4453293;32;34536;-73
2021/12/14 03:10:35;;;;;;;;;;;;;;;9.57;36.86;100515.41;4466048;32;33956;-74
2021/12/14 03:12:54;;;;;;;;;;;;;;;9.78;36.28;100523.12;4466427;32;32905;-73
2021/12/14 03:15:26;;;;;;;;;;;;;;;9.36;37.62;100516.66;4468708;32;34278;-75
2021/12/14 03:17:55;;;;;;;;;;;;;;;9.08;38.46;100514.69;4467145;32;33077;-74
2021/12/14 03:20:25;;;;;;;;;;;;;;;9.38;37.68;100513.91;4471077;32;34177;-72
2021/12/14 03:23:13;;;;;;;;;;;;;;;9.44;37.77;100516.22;4472674;32;34230;-72
2021/12/14 03:25:42;;;;;;;;;;;;;;;9.80;36.61;100515.88;4468459;32;34638;-72
2021/12/14 03:28:10;;;;;;;;;;;;;;;9.59;37.06;100507.28;4473012;32;33452;-73
2021/12/14 03:30:43;;;;;;;;;;;;;;;9.73;36.69;100519.88;4469673;32;34169;-73
2021/12/14 03:33:17;;;;;;;;;;;;;;;9.67;37.23;100520.22;4472668;32;34438;-74
2021/12/14 03:35:47;;;;;;;;;;;;;;;9.62;37.48;100509.78;4471496;32;34261;-74
2021/12/14 03:38:20;;;;;;;;;;;;;;;9.93;36.39;100505.31;4471694;32;33829;-74
2021/12/14 03:40:58;;;;;;;;;;;;;;;9.60;37.31;100508.16;4473763;32;35116;-74
2021/12/14 03:43:26;;;;;;;;;;;;;;;9.23;38.31;100504.94;4472335;32;32840;-77
2021/12/14 03:45:54;;;;;;;;;;;;;;;9.81;36.48;100509.56;4473799;32;34533;-74
2021/12/14 03:48:22;;;;;;;;;;;;;;;10.08;35.65;100507.06;4468950;32;34681;-74
2021/12/14 03:50:51;;;;;;;;;;;;;;;9.92;36.65;100498.22;4476214;32;35666;-74
2021/12/14 03:53:19;;;;;;;;;;;;;;;9.94;36.31;100493.66;4471715;32;35123;-74
2021/12/14 03:55:47;;;;;;;;;;;;;;;9.81;36.13;100496.19;4470388;32;35368;-72
2021/12/14 03:58:18;;;;;;;;;;;;;;;9.93;36.02;100497.28;4475971;32;33765;-74
2021/12/14 04:00:53;;;;;;;;;;;;;;;9.98;35.69;100493.38;4472760;32;35050;-76
2021/12/14 04:03:21;;;;;;;;;;;;;;;9.93;35.20;100494.63;4454216;32;33744;-73
2021/12/14 04:05:50;;;;;;;;;;;;;;;9.98;35.33;100497.84;4472768;32;33188;-73
2021/12/14 04:08:18;;;;;;;;;;;;;;;9.95;34.94;100495.34;4478234;32;34348;-76
2021/12/14 04:10:46;;;;;;;;;;;;;;;9.76;35.64;100504.50;4474827;32;33022;-73
2021/12/14 04:13:23;;;;;;;;;;;;;;;9.86;34.79;100502.16;4470930;32;35253;-74
2021/12/14 04:15:53;;;;;;;;;;;;;;;10.02;34.25;100502.09;4477474;32;34444;-74
2021/12/14 04:18:21;;;;;;;;;;;;;;;9.98;34.54;100498.75;4469655;32;34289;-73
2021/12/14 04:20:50;;;;;;;;;;;;;;;9.92;34.49;100500.88;4467484;32;35137;-75
2021/12/14 04:23:26;;;;;;;;;;;;;;;9.95;34.22;100500.72;4472017;32;33972;-73
2021/12/14 04:25:54;;;;;;;;;;;;;;;9.84;34.75;100501.37;4457270;32;34281;-74
2021/12/14 04:28:24;;;;;;;;;;;;;;;9.77;34.76;100500.00;4468726;32;33376;-73
2021/12/14 04:30:52;;;;;;;;;;;;;;;9.72;35.76;100502.94;4468334;32;34214;-74
2021/12/14 04:33:38;;;;;;;;;;;;;;;9.04;37.15;100510.47;4469175;32;34269;-75
2021/12/14 04:36:08;;;;;;;;;;;;;;;9.79;35.59;100506.09;4468878;32;34563;-74
2021/12/14 04:38:45;;;;;;;;;;;;;;;9.72;36.02;100504.75;4468526;32;33654;-74
2021/12/14 04:52:22;;;;;;;;;;;;;;;9.09;37.35;100503.94;4478839;32;34854;-75
2021/12/14 04:55:17;;;;;;;;;;;;;;;9.03;36.84;100498.94;4467744;32;34139;-73
2021/12/14 04:57:46;;;;;;;;;;;;;;;9.67;35.14;100505.03;4473063;32;34447;-74
2021/12/14 05:00:14;;;;;;;;;;;;;;;9.96;34.99;100499.78;4479743;32;33717;-73
2021/12/14 05:02:45;;;;;;;;;;;;;;;9.13;36.88;100501.94;4472952;32;34391;-73
2021/12/14 05:05:17;;;;;;;;;;;;;;;9.89;34.75;100509.97;4471063;32;34533;-80
2021/12/14 05:10:44;;;;;;;;;;;;;;;9.08;36.71;100507.56;4476640;32;33675;-78
2021/12/14 05:13:12;;;;;;;;;;;;;;;9.38;36.51;100509.41;4473240;32;34138;-76
2021/12/14 05:15:40;;;;;;;;;;;;;;;9.41;36.31;100513.72;4470709;32;34244;-76
2021/12/14 05:18:11;;;;;;;;;;;;;;;9.61;35.74;100512.56;4455541;32;35275;-76
2021/12/14 05:20:43;;;;;;;;;;;;;;;9.56;35.66;100512.81;4454587;32;33005;-77
2021/12/14 05:23:13;;;;;;;;;;;;;;;9.65;35.48;100519.44;4475482;32;32485;-76
2021/12/14 05:25:40;;;;;;;;;;;;;;;9.16;35.48;100528.47;4456112;32;32509;-76
2021/12/14 05:28:13;;;;;;;;;;;;;;;9.64;35.04;100533.78;4458753;32;34546;-76
2021/12/14 05:30:43;;;;;;;;;;;;;;;9.83;34.87;100533.56;4476874;32;32203;-75
2021/12/14 05:33:13;;;;;;;;;;;;;;;9.92;34.33;100531.19;4475336;32;34235;-76
2021/12/14 05:35:40;;;;;;;;;;;;;;;10.00;33.13;100512.84;4469191;32;35518;-74
2021/12/14 05:38:09;;;;;;;;;;;;;;;9.69;35.97;100529.00;4471051;32;34574;-76
2021/12/14 05:40:54;;;;;;;;;;;;;;;9.33;35.80;100528.37;4470551;32;33656;-74
2021/12/14 05:43:27;;;;;;;;;;;;;;;8.97;36.72;100523.31;4475165;32;32535;-73
2021/12/14 05:45:57;;;;;;;;;;;;;;;9.47;35.59;100527.59;4440757;32;32761;-74
2021/12/14 05:48:28;;;;;;;;;;;;;;;9.55;35.59;100528.00;4443677;32;34156;-74
2021/12/14 05:50:58;;;;;;;;;;;;;;;9.08;36.53;100528.03;4440814;32;34577;-74
2021/12/14 05:53:34;;;;;;;;;;;;;;;9.70;34.46;100526.25;4444395;32;32726;-74
2021/12/14 05:56:06;;;;;;;;;;;;;;;9.90;33.92;100534.91;4443940;32;33998;-73
2021/12/14 05:58:33;;;;;;;;;;;;;;;10.01;33.35;100532.44;4443961;32;33539;-73
2021/12/14 06:01:04;;;;;;;;;;;;;;;10.18;33.20;100536.78;4439447;32;33210;-75
2021/12/14 06:03:36;;;;;;;;;;;;;;;9.58;34.23;100540.31;4438399;32;32344;-73
2021/12/14 06:06:05;;;;;;;;;;;;;;;9.33;35.53;100543.53;4437116;32;35324;-73
2021/12/14 06:08:33;;;;;;;;;;;;;;;10.20;33.12;100534.88;4446183;32;35163;-75
2021/12/14 06:11:01;;;;;;;;;;;;;;;9.67;34.70;100542.47;4443708;32;33741;-73
2021/12/14 06:13:42;;;;;;;;;;;;;;;10.19;33.01;100541.19;4443281;32;34080;-73
2021/12/14 06:16:22;;;;;;;;;;;;;;;10.24;33.47;100536.38;4442137;32;35525;-74
2021/12/14 06:18:50;;;;;;;;;;;;;;;10.37;33.00;100532.06;4445709;32;34280;-74
2021/12/14 06:21:27;;;;;;;;;;;;;;;10.42;32.51;100542.47;4433079;32;34471;-74
2021/12/14 06:24:05;;;;;;;;;;;;;;;10.58;31.99;100542.41;4439446;32;34853;-74
2021/12/14 06:26:36;;;;;;;;;;;;;;;10.20;33.06;100551.78;4437457;32;34259;-78
2021/12/14 06:29:13;;;;;;;;;;;;;;;10.54;32.61;100548.91;4434706;32;34329;-75
2021/12/14 06:31:41;;;;;;;;;;;;;;;10.40;32.81;100550.62;4438235;32;33687;-75
2021/12/14 06:34:13;;;;;;;;;;;;;;;10.57;32.90;100546.91;4433331;32;33791;-75
2021/12/14 06:36:51;;;;;;;;;;;;;;;10.33;32.82;100538.53;4437162;32;32802;-78
2021/12/14 06:39:20;;;;;;;;;;;;;;;10.32;33.43;100547.53;4445068;32;34424;-77
2021/12/14 06:41:47;;;;;;;;;;;;;;;10.92;32.24;100535.78;4442689;32;35050;-76
2021/12/14 06:44:15;;;;;;;;;;;;;;;11.08;31.53;100546.38;4450548;32;34077;-76
2021/12/14 06:46:44;;;;;;;;;;;;;;;10.75;32.29;100544.00;4449699;32;34536;-76
2021/12/14 06:49:14;;;;;;;;;;;;;;;11.36;31.15;100558.84;4449021;32;34491;-76
2021/12/14 06:51:43;;;;;;;;;;;;;;;12.50;29.59;100547.56;4446134;32;33813;-76
2021/12/14 06:54:12;;;;;;;;;;;;;;;13.38;28.19;100554.75;4451738;32;33905;-76
2021/12/14 06:56:41;;;;;;;;;;;;;;;13.68;27.57;100552.50;4454942;32;33251;-76
2021/12/14 06:59:29;;;;;;;;;;;;;;;13.18;28.57;100559.72;4451475;32;37024;-76
2021/12/14 07:02:02;;;;;;;;;;;;;;;13.19;28.40;100558.78;4453206;32;33725;-74
2021/12/14 07:04:32;;;;;;;;;;;;;;;13.57;28.30;100563.19;4446901;32;35031;-72
2021/12/14 07:07:02;;;;;;;;;;;;;;;14.12;27.11;100567.09;4454500;32;34818;-72
2021/12/14 07:09:33;;;;;;;;;;;;;;;14.04;27.49;100563.28;4452436;32;33877;-73
2021/12/14 07:12:03;;;;;;;;;;;;;;;14.10;26.52;100574.44;4453306;32;32723;-73
2021/12/14 07:14:30;;;;;;;;;;;;;;;13.89;27.81;100571.53;4451998;32;32082;-74
2021/12/14 07:17:01;;;;;;;;;;;;;;;14.54;26.65;100564.78;4454276;32;34577;-76
2021/12/14 07:19:40;;;;;;;;;;;;;;;14.47;26.46;100566.19;4450070;32;35057;-77
2021/12/14 07:22:10;;;;;;;;;;;;;;;14.60;26.34;100566.13;4458982;32;34354;-76
2021/12/14 07:24:38;;;;;;;;;;;;;;;14.72;26.18;100575.09;4451473;32;34231;-78
2021/12/14 07:27:14;;;;;;;;;;;;;;;14.36;26.59;100580.50;4459864;32;34302;-77
2021/12/14 07:29:42;;;;;;;;;;;;;;;14.52;26.53;100577.53;4453981;32;35277;-75
2021/12/14 07:32:09;;;;;;;;;;;;;;;14.96;26.48;100581.25;4450231;32;33609;-73
2021/12/14 07:34:36;;;;;;;;;;;;;;;15.51;25.72;100576.75;4448983;32;32714;-72
2021/12/14 07:37:04;;;;;;;;;;;;;;;15.79;25.67;100566.37;4456062;32;35255;-75
2021/12/14 07:39:31;;;;;;;;;;;;;;;16.54;24.54;100568.97;4450091;32;34424;-75
2021/12/14 07:41:59;;;;;;;;;;;;;;;16.30;24.58;100571.06;4457025;32;34148;-77
2021/12/14 07:44:27;;;;;;;;;;;;;;;16.25;24.59;100579.59;4456094;32;35630;-77
2021/12/14 07:46:58;;;;;;;;;;;;;;;16.42;24.86;100567.31;4467025;32;34274;-75
2021/12/14 07:49:54;;;;;;;;;;;;;;;16.19;25.27;100572.00;4475311;32;34316;-77
2021/12/14 07:52:23;;;;;;;;;;;;;;;15.95;25.61;100561.41;4473395;32;34615;-78
2021/12/14 07:54:52;;;;;;;;;;;;;;;16.76;24.59;100568.00;4458502;32;34289;-76
2021/12/14 07:57:23;;;;;;;;;;;;;;;16.97;24.51;100576.03;4452720;32;35004;-78
2021/12/14 07:59:53;;;;;;;;;;;;;;;17.82;23.85;100569.34;4470224;32;34308;-78
2021/12/14 08:02:22;;;;;;;;;;;;;;;19.42;21.50;100565.81;4465716;32;32276;-78
2021/12/14 08:04:53;;;;;;;;;;;;;;;18.87;22.48;100568.47;4455541;32;34286;-76
2021/12/14 08:07:28;;;;;;;;;;;;;;;18.76;22.68;100571.38;4459810;32;32909;-77
2021/12/14 08:10:24;;;;;;;;;;;;;;;18.52;22.83;100563.69;4468340;32;34369;-77
2021/12/14 08:12:51;;;;;;;;;;;;;;;18.16;23.26;100571.59;4467614;32;34677;-78
2021/12/14 08:15:22;;;;;;;;;;;;;;;18.20;22.81;100570.31;4469564;32;32669;-76
2021/12/14 08:18:05;;;;;;;;;;;;;;;18.18;23.18;100569.63;4472815;32;33851;-78
2021/12/14 08:20:33;;;;;;;;;;;;;;;18.12;23.59;100571.03;4468600;32;34993;-75
2021/12/14 08:23:11;;;;;;;;;;;;;;;18.04;23.40;100572.75;4474633;32;32214;-77
2021/12/14 08:25:39;;;;;;;;;;;;;;;18.35;23.00;100571.56;4467025;32;34419;-76
2021/12/14 08:28:07;;;;;;;;;;;;;;;18.63;22.67;100567.09;4475397;32;34399;-75
2021/12/14 08:30:35;;;;;;;;;;;;;;;18.29;23.42;100569.44;4455298;32;35390;-76
2021/12/14 08:33:03;;;;;;;;;;;;;;;18.18;23.49;100566.06;4455834;32;34527;-78
2021/12/14 08:35:31;;;;;;;;;;;;;;;18.03;23.43;100568.31;4472180;32;34046;-78
2021/12/14 08:38:00;;;;;;;;;;;;;;;18.96;22.64;100575.72;4452782;32;34440;-78
2021/12/14 08:40:39;;;;;;;;;;;;;;;19.35;22.33;100569.28;4449205;32;33880;-78
2021/12/14 08:43:13;;;;;;;;;;;;;;;18.94;22.71;100575.06;4471798;32;33718;-77
2021/12/14 08:45:46;;;;;;;;;;;;;;;18.49;23.52;100574.84;4463810;32;35166;-79
2021/12/14 08:48:17;;;;;;;;;;;;;;;17.37;25.32;100575.19;4451010;32;34308;-77
2021/12/14 08:51:00;;;;;;;;;;;;;;;17.38;25.27;100576.91;4468709;32;35407;-78
2021/12/14 08:53:29;;;;;;;;;;;;;;;17.13;25.33;100575.53;4470464;32;33648;-76
2021/12/14 08:55:57;;;;;;;;;;;;;;;16.84;25.58;100580.81;4467169;32;34221;-77
2021/12/14 08:58:25;;;;;;;;;;;;;;;17.84;24.90;100586.28;4471533;32;32862;-77
2021/12/14 09:00:54;;;;;;;;;;;;;;;18.06;24.58;100579.72;4465031;32;34933;-75
2021/12/14 09:03:31;;;;;;;;;;;;;;;18.14;24.76;100581.75;4469887;32;33153;-74
2021/12/14 09:06:04;;;;;;;;;;;;;;;20.04;22.42;100567.84;4475415;32;35115;-74
2021/12/14 09:08:32;;;;;;;;;;;;;;;20.32;21.62;100571.28;4469978;32;35096;-76
2021/12/14 09:11:01;;;;;;;;;;;;;;;21.13;21.14;100566.41;4470817;32;34981;-74
2021/12/14 09:13:28;;;;;;;;;;;;;;;20.32;21.84;100565.84;4474208;32;33594;-75
2021/12/14 09:16:01;;;;;;;;;;;;;;;19.64;22.89;100564.53;4467614;32;34298;-74
2021/12/14 09:18:29;;;;;;;;;;;;;;;19.78;22.78;100566.75;4464223;32;35616;-76
2021/12/14 09:20:58;;;;;;;;;;;;;;;19.74;23.19;100568.06;4471121;32;34175;-75
2021/12/14 09:23:31;;;;;;;;;;;;;;;20.73;21.82;100561.59;4453634;32;33595;-75
2021/12/14 09:25:58;;;;;;;;;;;;;;;20.83;22.09;100558.75;4468796;32;34770;-75
2021/12/14 09:28:26;;;;;;;;;;;;;;;20.66;21.88;100563.25;4467404;32;35187;-75
2021/12/14 09:30:56;;;;;;;;;;;;;;;20.37;22.29;100564.38;4455032;32;34503;-75
2021/12/14 09:33:24;;;;;;;;;;;;;;;18.88;23.88;100569.37;4463236;32;33508;-76
2021/12/14 09:35:55;;;;;;;;;;;;;;;19.24;23.73;100557.62;4451665;32;32966;-75
2021/12/14 09:38:31;;;;;;;;;;;;;;;18.96;24.22;100559.47;4469115;32;33035;-76
2021/12/14 09:41:00;;;;;;;;;;;;;;;19.11;24.00;100559.84;4459679;32;34489;-76
2021/12/14 09:43:32;;;;;;;;;;;;;;;19.51;23.69;100558.59;4472023;32;34623;-75
2021/12/14 09:46:00;;;;;;;;;;;;;;;20.13;22.48;100556.88;4471956;32;35231;-75
2021/12/14 09:48:29;;;;;;;;;;;;;;;20.38;22.33;100554.34;4472079;32;35354;-74
2021/12/14 09:51:02;;;;;;;;;;;;;;;20.66;22.39;100547.78;4470502;32;34546;-75
2021/12/14 09:53:31;;;;;;;;;;;;;;;21.10;21.65;100549.56;4443878;32;34913;-76
2021/12/14 09:55:58;;;;;;;;;;;;;;;20.89;21.64;100541.78;4453002;32;34317;-75
2021/12/14 09:58:27;;;;;;;;;;;;;;;20.80;22.11;100540.91;4470608;32;32927;-74
2021/12/14 10:00:57;;;;;;;;;;;;;;;21.01;21.56;100535.06;4463530;32;35349;-79
2021/12/14 10:03:25;;;;;;;;;;;;;;;20.72;22.17;100535.41;4469276;32;33655;-75
2021/12/14 10:05:55;;;;;;;;;;;;;;;20.62;22.38;100534.69;4468552;32;35197;-75
2021/12/14 10:08:30;;;;;;;;;;;;;;;20.05;22.94;100537.78;4451217;32;34292;-75
2021/12/14 10:11:05;;;;;;;;;;;;;;;20.18;22.94;100526.50;4467648;32;34429;-76
2021/12/14 10:13:34;;;;;;;;;;;;;;;20.91;21.98;100535.19;4472627;32;32928;-75
2021/12/14 10:16:03;;;;;;;;;;;;;;;21.41;22.01;100533.50;4472021;32;34034;-77
2021/12/14 10:18:35;;;;;;;;;;;;;;;21.74;21.59;100529.00;4465567;32;33781;-75
2021/12/14 10:21:05;;;;;;;;;;;;;;;21.44;21.91;100530.47;4458405;32;34997;-75
2021/12/14 10:23:34;;;;;;;;;;;;;;;21.77;21.34;100525.94;4459322;32;33349;-75
2021/12/14 10:26:02;;;;;;;;;;;;;;;22.29;20.93;100520.19;4457286;32;35114;-75
2021/12/14 10:28:30;;;;;;;;;;;;;;;23.24;19.74;100511.22;4464659;32;34445;-75
2021/12/14 10:31:00;;;;;;;;;;;;;;;23.20;19.91;100510.75;4468054;32;32988;-76
2021/12/14 10:33:28;;;;;;;;;;;;;;;23.20;19.89;100515.34;4467831;32;33942;-74
2021/12/14 10:36:00;;;;;;;;;;;;;;;22.69;19.96;100515.69;4468678;32;33541;-75
2021/12/14 10:38:31;;;;;;;;;;;;;;;21.89;21.02;100517.44;4465576;32;35720;-78
2021/12/14 10:43:48;;;;;;;;;;;;;;;20.49;22.97;100518.75;4456019;32;34193;-75
2021/12/14 10:46:36;;;;;;;;;;;;;;;20.12;23.53;100517.12;4443455;32;34663;-75
2021/12/14 10:49:04;;;;;;;;;;;;;;;20.54;22.89;100510.97;4474164;32;34368;-77
2021/12/14 10:51:33;;;;;;;;;;;;;;;20.02;23.84;100514.47;4459304;32;35272;-77
2021/12/14 10:54:03;;;;;;;;;;;;;;;20.33;23.60;100516.78;4469978;32;34566;-79
2021/12/14 10:56:44;;;;;;;;;;;;;;;20.88;23.01;100504.72;4475687;32;34537;-75
2021/12/14 10:59:12;;;;;;;;;;;;;;;21.65;22.01;100512.81;4466617;32;34450;-75
2021/12/14 11:01:43;;;;;;;;;;;;;;;21.94;21.54;100513.19;4469497;32;35477;-75
2021/12/14 11:04:11;;;;;;;;;;;;;;;21.30;22.34;100520.19;4475367;32;35243;-75
2021/12/14 11:06:42;;;;;;;;;;;;;;;22.01;21.54;100516.09;4471752;32;33477;-74
2021/12/14 11:11:42;;;;;;;;;;;;;;;23.02;20.19;100510.16;4474930;32;34417;-79
2021/12/14 11:14:13;;;;;;;;;;;;;;;23.06;20.22;100499.75;4472067;32;33575;-74
2021/12/14 11:19:32;;;;;;;;;;;;;;;22.77;20.27;100503.91;4468456;32;34434;-75
2021/12/14 11:22:13;;;;;;;;;;;;;;;22.74;20.46;100504.25;4455589;32;32670;-75
2021/12/14 11:24:42;;;;;;;;;;;;;;;22.32;20.98;100497.19;4455464;32;33351;-77
2021/12/14 11:27:14;;;;;;;;;;;;;;;21.77;21.77;100498.72;4472564;32;35111;-77
2021/12/14 11:29:41;;;;;;;;;;;;;;;21.48;21.84;100501.91;4471746;32;34254;-78
2021/12/14 11:32:15;;;;;;;;;;;;;;;20.89;22.49;100503.69;4476374;32;34427;-76
2021/12/14 11:34:45;;;;;;;;;;;;;;;20.44;23.07;100499.34;4471092;32;33726;-74
2021/12/14 11:37:16;;;;;;;;;;;;;;;19.65;24.10;100497.53;4453002;32;35434;-75
2021/12/14 11:39:45;;;;;;;;;;;;;;;19.09;25.06;100496.72;4462250;32;34530;-75
2021/12/14 11:42:19;;;;;;;;;;;;;;;18.13;26.60;100498.75;4456558;32;34618;-75
2021/12/14 11:44:52;;;;;;;;;;;;;;;18.03;26.92;100508.72;4468960;32;33807;-74
2021/12/14 11:48:03;;;;;;;;;;;;;;;17.63;27.69;100507.00;4457984;32;33923;-74
2021/12/14 11:50:16;;;;;;;;;;;;;;;17.49;27.94;100507.41;4466662;32;33909;-75
2021/12/14 11:52:57;;;;;;;;;;;;;;;16.47;29.60;100500.25;4470888;32;35296;-74
2021/12/14 11:55:30;;;;;;;;;;;;;;;16.73;29.06;100497.94;4474042;32;32237;-77
2021/12/14 11:58:11;;;;;;;;;;;;;;;16.29;29.98;100494.59;4474347;32;33831;-74
2021/12/14 12:00:41;;;;;;;;;;;;;;;16.05;30.37;100486.78;4477427;32;34431;-73
2021/12/14 12:03:30;;;;;;;;;;;;;;;16.07;30.41;100487.47;4474277;32;34668;-74
2021/12/14 12:06:13;;;;;;;;;;;;;;;16.14;30.27;100489.66;4469883;32;33617;-75
2021/12/14 12:11:33;;;;;;;;;;;;;;;15.90;30.88;100489.94;4469274;32;34088;-74
2021/12/14 12:14:00;;;;;;;;;;;;;;;14.86;32.36;100491.28;4461743;32;34537;-75
2021/12/14 12:16:28;;;;;;;;;;;;;;;15.53;31.39;100490.28;4467050;32;32895;-74
2021/12/14 12:19:22;;;;;;;;;;;;;;;15.37;31.89;100485.31;4466159;32;33501;-76
2021/12/14 12:21:50;;;;;;;;;;;;;;;15.82;30.89;100495.97;4468447;32;35159;-74
2021/12/14 12:24:31;;;;;;;;;;;;;;;16.00;30.79;100485.44;4467917;32;34261;-75
2021/12/14 12:27:15;;;;;;;;;;;;;;;16.10;30.79;100489.06;4472071;32;33662;-74
2021/12/14 12:29:42;;;;;;;;;;;;;;;16.11;30.74;100487.22;4476404;32;32888;-75
2021/12/14 12:32:19;;;;;;;;;;;;;;;16.40;29.76;100479.28;4472128;32;34305;-75
2021/12/14 12:34:49;;;;;;;;;;;;;;;15.58;30.65;100488.06;4472457;32;34536;-76
2021/12/14 12:37:32;;;;;;;;;;;;;;;15.19;30.99;100487.72;4469772;32;32741;-75
2021/12/14 12:39:59;;;;;;;;;;;;;;;15.68;30.43;100483.63;4456933;32;34878;-75
2021/12/14 12:42:27;;;;;;;;;;;;;;;15.67;30.29;100490.03;4472601;32;33526;-78
2021/12/14 12:44:54;;;;;;;;;;;;;;;16.04;29.31;100485.03;4469533;32;35999;-75
2021/12/14 12:47:22;;;;;;;;;;;;;;;15.29;30.78;100488.66;4465796;32;33387;-75
2021/12/14 12:49:53;;;;;;;;;;;;;;;15.65;30.11;100483.00;4465946;32;34212;-74
2021/12/14 12:52:27;;;;;;;;;;;;;;;16.34;29.07;100496.03;4467388;32;35234;-75
2021/12/14 12:54:56;;;;;;;;;;;;;;;15.82;29.92;100493.25;4473887;32;35146;-75
2021/12/14 12:57:38;;;;;;;;;;;;;;;16.36;29.54;100481.41;4474600;32;33634;-76
2021/12/14 13:00:12;;;;;;;;;;;;;;;16.67;29.48;100478.72;4462241;32;35181;-75
2021/12/14 13:02:39;;;;;;;;;;;;;;;16.68;29.33;100477.72;4471349;32;34307;-75
2021/12/14 13:05:28;;;;;;;;;;;;;;;15.27;31.47;100478.97;4473896;32;34511;-74
2021/12/14 13:07:58;;;;;;;;;;;;;;;15.61;30.53;100477.87;4470895;32;33744;-74
2021/12/14 13:10:28;;;;;;;;;;;;;;;16.54;29.91;100471.69;4471055;32;35202;-75
2021/12/14 13:13:00;;;;;;;;;;;;;;;16.39;29.29;100475.72;4471732;32;34483;-74
2021/12/14 13:15:36;;;;;;;;;;;;;;;16.61;29.44;100481.94;4453955;32;33804;-74
2021/12/14 13:18:22;;;;;;;;;;;;;;;16.87;28.81;100491.31;4462521;32;34287;-76
2021/12/14 13:21:13;;;;;;;;;;;;;;;16.88;29.06;100482.22;4468265;32;34299;-74
2021/12/14 13:24:10;;;;;;;;;;;;;;;15.77;30.63;100484.72;4454864;32;33964;-72
2021/12/14 13:26:49;;;;;;;;;;;;;;;16.57;29.48;100486.78;4450229;32;34505;-75
2021/12/14 13:29:35;;;;;;;;;;;;;;;16.30;30.19;100484.63;4467302;32;34330;-76
2021/12/14 13:32:09;;;;;;;;;;;;;;;16.46;29.94;100487.69;4466882;32;33144;-77
2021/12/14 13:34:45;;;;;;;;;;;;;;;16.12;30.25;100481.69;4470572;32;34365;-74
2021/12/14 13:37:14;;;;;;;;;;;;;;;16.16;30.21;100488.53;4472359;32;34564;-75